METAR Data
IDs: Format: Raw Decoded Include TAF

Data at: 2005 UTC 26 Sep 2021

METAR for:KJGG (Williamsburg-Jamesto, VA, US)
Text:KJGG 261955Z AUTO 33005KT 10SM CLR 26/10 A3002 RMK AO1
Temperature: 26.0°C ( 79°F)
Dewpoint: 10.0°C ( 50°F) [RH = 37%]
Pressure (altimeter):30.02 inches Hg (1016.7 mb)
Winds:from the NNW (330 degrees) at 6 MPH (5 knots; 2.6 m/s)
Visibility:10 or more sm (16+ km)
Ceiling:at least 12,000 feet AGL
Clouds:sky clear below 12,000 feet AGL
QC Flag:automated observation with no human augmentation

TAF for:KJGG (Williamsburg-Jamesto, VA, US)
Text:No data found